sensor_id;sensor_type;location;lat;lon;timestamp;pressure;altitude;pressure_sealevel;temperature;humidity
68994;BME280;56054;50.968;5.816;2023-02-01T05:50:52;101262.66;;;5.14;100.00
68994;BME280;56054;50.968;5.816;2023-02-01T05:54:13;101268.44;;;5.11;100.00
68994;BME280;56054;50.968;5.816;2023-02-01T05:57:23;101253.59;;;5.09;100.00
68994;BME280;56054;50.968;5.816;2023-02-01T06:00:32;101241.22;;;5.05;100.00
68994;BME280;56054;50.968;5.816;2023-02-01T06:03:46;101248.50;;;5.00;100.00
68994;BME280;56054;50.968;5.816;2023-02-01T06:06:56;101250.03;;;4.98;100.00
68994;BME280;56054;50.968;5.816;2023-02-01T06:10:08;101255.66;;;4.94;100.00
68994;BME280;56054;50.968;5.816;2023-02-01T06:13:18;101259.47;;;4.89;100.00
68994;BME280;56054;50.968;5.816;2023-02-01T06:16:45;101260.63;;;4.92;100.00
68994;BME280;56054;50.968;5.816;2023-02-01T06:19:52;101258.69;;;4.90;100.00
68994;BME280;56054;50.968;5.816;2023-02-01T06:22:59;101259.19;;;4.86;100.00
68994;BME280;56054;50.968;5.816;2023-02-01T06:26:46;101266.59;;;4.83;100.00
68994;BME280;56054;50.968;5.816;2023-02-01T06:29:58;101280.09;;;4.80;100.00
68994;BME280;56054;50.968;5.816;2023-02-01T06:33:27;101276.16;;;4.84;100.00
68994;BME280;56054;50.968;5.816;2023-02-01T06:36:33;101268.59;;;4.77;100.00
68994;BME280;56054;50.968;5.816;2023-02-01T06:39:43;101274.66;;;4.77;100.00
68994;BME280;56054;50.968;5.816;2023-02-01T06:42:49;101277.22;;;4.77;100.00
68994;BME280;56054;50.968;5.816;2023-02-01T06:46:01;101282.56;;;4.70;100.00
68994;BME280;56054;50.968;5.816;2023-02-01T06:49:41;101289.09;;;4.66;100.00
68994;BME280;56054;50.968;5.816;2023-02-01T06:52:48;101302.72;;;4.65;100.00
68994;BME280;56054;50.968;5.816;2023-02-01T06:56:03;101293.47;;;4.67;100.00
68994;BME280;56054;50.968;5.816;2023-02-01T06:59:15;101298.34;;;4.64;100.00
68994;BME280;56054;50.968;5.816;2023-02-01T07:02:22;101297.13;;;4.61;100.00
68994;BME280;56054;50.968;5.816;2023-02-01T07:05:28;101303.66;;;4.57;100.00
68994;BME280;56054;50.968;5.816;2023-02-01T07:08:46;101312.00;;;4.55;100.00
68994;BME280;56054;50.968;5.816;2023-02-01T07:11:54;101308.81;;;4.57;100.00
68994;BME280;56054;50.968;5.816;2023-02-01T07:15:33;101316.09;;;4.53;100.00
68994;BME280;56054;50.968;5.816;2023-02-01T07:18:40;101316.25;;;4.54;100.00
68994;BME280;56054;50.968;5.816;2023-02-01T07:21:47;101311.09;;;4.54;100.00
68994;BME280;56054;50.968;5.816;2023-02-01T07:24:57;101321.66;;;4.57;100.00
68994;BME280;56054;50.968;5.816;2023-02-01T07:28:09;101320.16;;;4.59;100.00
68994;BME280;56054;50.968;5.816;2023-02-01T07:31:18;101311.38;;;4.57;100.00
68994;BME280;56054;50.968;5.816;2023-02-01T07:34:45;101321.38;;;4.54;100.00
68994;BME280;56054;50.968;5.816;2023-02-01T07:37:52;101319.25;;;4.50;100.00
68994;BME280;56054;50.968;5.816;2023-02-01T07:41:02;101310.19;;;4.54;100.00
68994;BME280;56054;50.968;5.816;2023-02-01T07:44:28;101299.13;;;4.55;100.00
68994;BME280;56054;50.968;5.816;2023-02-01T07:47:39;101303.38;;;4.54;100.00
68994;BME280;56054;50.968;5.816;2023-02-01T07:50:48;101308.53;;;4.54;100.00
68994;BME280;56054;50.968;5.816;2023-02-01T07:53:55;101291.72;;;4.49;100.00
68994;BME280;56054;50.968;5.816;2023-02-01T07:57:04;101303.25;;;4.44;100.00
68994;BME280;56054;50.968;5.816;2023-02-01T08:00:12;101302.94;;;4.41;100.00
68994;BME280;56054;50.968;5.816;2023-02-01T08:03:30;101312.66;;;4.35;100.00
68994;BME280;56054;50.968;5.816;2023-02-01T08:06:37;101320.22;;;4.42;100.00
68994;BME280;56054;50.968;5.816;2023-02-01T08:09:46;101329.88;;;4.44;100.00
68994;BME280;56054;50.968;5.816;2023-02-01T08:12:58;101340.91;;;4.52;100.00
68994;BME280;56054;50.968;5.816;2023-02-01T08:16:08;101334.09;;;4.53;100.00
68994;BME280;56054;50.968;5.816;2023-02-01T08:19:26;101336.66;;;4.53;100.00
68994;BME280;56054;50.968;5.816;2023-02-01T08:22:33;101329.84;;;4.53;100.00
68994;BME280;56054;50.968;5.816;2023-02-01T08:29:15;101342.38;;;4.67;100.00
68994;BME280;56054;50.968;5.816;2023-02-01T08:32:23;101347.06;;;4.71;100.00
68994;BME280;56054;50.968;5.816;2023-02-01T08:35:29;101357.81;;;4.76;100.00
68994;BME280;56054;50.968;5.816;2023-02-01T08:38:42;101341.75;;;4.79;100.00
68994;BME280;56054;50.968;5.816;2023-02-01T08:48:16;101361.56;;;4.88;100.00
68994;BME280;56054;50.968;5.816;2023-02-01T08:51:30;101363.69;;;4.84;100.00
68994;BME280;56054;50.968;5.816;2023-02-01T08:54:42;101364.59;;;4.84;100.00
68994;BME280;56054;50.968;5.816;2023-02-01T08:57:49;101349.59;;;4.89;100.00
68994;BME280;56054;50.968;5.816;2023-02-01T09:01:21;101359.13;;;4.90;100.00
68994;BME280;56054;50.968;5.816;2023-02-01T09:04:38;101356.09;;;4.94;100.00
68994;BME280;56054;50.968;5.816;2023-02-01T09:07:54;101344.25;;;4.96;100.00
68994;BME280;56054;50.968;5.816;2023-02-01T09:11:03;101341.06;;;4.99;100.00
68994;BME280;56054;50.968;5.816;2023-02-01T09:14:11;101359.81;;;5.06;100.00
68994;BME280;56054;50.968;5.816;2023-02-01T09:17:18;101344.53;;;5.08;100.00
68994;BME280;56054;50.968;5.816;2023-02-01T09:20:27;101350.84;;;5.11;100.00
68994;BME280;56054;50.968;5.816;2023-02-01T09:23:52;101349.34;;;5.13;100.00
68994;BME280;56054;50.968;5.816;2023-02-01T09:27:08;101332.94;;;5.22;100.00
68994;BME280;56054;50.968;5.816;2023-02-01T09:30:17;101343.66;;;5.26;100.00
68994;BME280;56054;50.968;5.816;2023-02-01T09:33:24;101325.63;;;5.26;100.00
68994;BME280;56054;50.968;5.816;2023-02-01T09:36:32;101326.97;;;5.31;100.00
68994;BME280;56054;50.968;5.816;2023-02-01T09:39:40;101311.94;;;5.36;100.00
68994;BME280;56054;50.968;5.816;2023-02-01T09:43:18;101315.84;;;5.41;100.00
68994;BME280;56054;50.968;5.816;2023-02-01T09:46:34;101307.47;;;5.44;100.00
68994;BME280;56054;50.968;5.816;2023-02-01T09:50:41;101306.88;;;5.46;100.00
68994;BME280;56054;50.968;5.816;2023-02-01T09:58:07;101312.97;;;5.66;100.00
68994;BME280;56054;50.968;5.816;2023-02-01T10:01:34;101312.06;;;5.84;100.00
68994;BME280;56054;50.968;5.816;2023-02-01T10:04:42;101309.75;;;5.87;100.00
68994;BME280;56054;50.968;5.816;2023-02-01T10:08:04;101322.47;;;5.94;100.00
68994;BME280;56054;50.968;5.816;2023-02-01T10:11:27;101317.16;;;5.93;100.00
68994;BME280;56054;50.968;5.816;2023-02-01T10:25:33;101318.19;;;6.33;100.00
68994;BME280;56054;50.968;5.816;2023-02-01T10:29:02;101328.72;;;6.45;100.00
68994;BME280;56054;50.968;5.816;2023-02-01T10:32:29;101321.72;;;6.43;100.00
68994;BME280;56054;50.968;5.816;2023-02-01T10:36:16;101313.47;;;6.48;100.00
68994;BME280;56054;50.968;5.816;2023-02-01T10:39:47;101313.09;;;6.53;100.00
68994;BME280;56054;50.968;5.816;2023-02-01T10:43:02;101310.22;;;6.69;100.00
68994;BME280;56054;50.968;5.816;2023-02-01T10:46:42;101308.66;;;6.61;100.00
68994;BME280;56054;50.968;5.816;2023-02-01T10:50:02;101318.88;;;6.80;100.00
68994;BME280;56054;50.968;5.816;2023-02-01T10:56:49;101299.75;;;6.78;100.00
68994;BME280;56054;50.968;5.816;2023-02-01T11:00:42;101315.72;;;6.93;100.00
68994;BME280;56054;50.968;5.816;2023-02-01T11:04:24;101299.19;;;7.01;100.00
68994;BME280;56054;50.968;5.816;2023-02-01T11:07:46;101295.31;;;6.96;100.00
68994;BME280;56054;50.968;5.816;2023-02-01T11:11:06;101308.72;;;6.92;100.00
68994;BME280;56054;50.968;5.816;2023-02-01T11:18:14;101291.44;;;7.11;100.00
68994;BME280;56054;50.968;5.816;2023-02-01T11:21:22;101278.28;;;7.08;100.00
68994;BME280;56054;50.968;5.816;2023-02-01T11:24:35;101273.91;;;7.17;100.00
68994;BME280;56054;50.968;5.816;2023-02-01T11:27:44;101279.16;;;7.19;100.00
68994;BME280;56054;50.968;5.816;2023-02-01T11:30:55;101277.38;;;7.18;100.00
68994;BME280;56054;50.968;5.816;2023-02-01T11:34:31;101267.16;;;7.19;99.77
68994;BME280;56054;50.968;5.816;2023-02-01T11:37:42;101268.72;;;7.17;100.00
68994;BME280;56054;50.968;5.816;2023-02-01T11:41:13;101247.25;;;7.18;99.92
68994;BME280;56054;50.968;5.816;2023-02-01T11:44:26;101232.00;;;7.21;100.00
68994;BME280;56054;50.968;5.816;2023-02-01T11:47:40;101239.91;;;7.23;98.72
68994;BME280;56054;50.968;5.816;2023-02-01T11:54:08;101256.19;;;7.32;99.47
68994;BME280;56054;50.968;5.816;2023-02-01T12:13:06;101240.25;;;7.58;98.04
68994;BME280;56054;50.968;5.816;2023-02-01T12:37:30;101212.59;;;7.57;96.11
68994;BME280;56054;50.968;5.816;2023-02-01T12:44:35;101200.94;;;7.62;96.26
68994;BME280;56054;50.968;5.816;2023-02-01T12:47:52;101208.28;;;7.68;95.18
68994;BME280;56054;50.968;5.816;2023-02-01T12:51:21;101204.16;;;7.70;95.71
68994;BME280;56054;50.968;5.816;2023-02-01T12:58:44;101209.97;;;7.67;94.96
68994;BME280;56054;50.968;5.816;2023-02-01T13:02:19;101201.53;;;7.80;94.04
68994;BME280;56054;50.968;5.816;2023-02-01T13:06:06;101191.59;;;7.75;94.32
68994;BME280;56054;50.968;5.816;2023-02-01T13:09:23;101198.59;;;7.76;95.48
68994;BME280;56054;50.968;5.816;2023-02-01T13:12:40;101187.59;;;7.78;94.65
68994;BME280;56054;50.968;5.816;2023-02-01T13:15:58;101195.06;;;7.85;94.10
68994;BME280;56054;50.968;5.816;2023-02-01T13:22:59;101187.69;;;7.80;92.98
68994;BME280;56054;50.968;5.816;2023-02-01T13:41:58;101186.13;;;7.82;93.20
68994;BME280;56054;50.968;5.816;2023-02-01T13:45:41;101191.69;;;7.86;91.80
68994;BME280;56054;50.968;5.816;2023-02-01T13:49:02;101183.41;;;7.90;91.50
68994;BME280;56054;50.968;5.816;2023-02-01T13:52:32;101186.94;;;7.81;92.81
68994;BME280;56054;50.968;5.816;2023-02-01T13:56:15;101195.44;;;7.80;93.72
68994;BME280;56054;50.968;5.816;2023-02-01T14:03:17;101199.22;;;7.83;93.95
68994;BME280;56054;50.968;5.816;2023-02-01T14:09:37;101197.28;;;7.81;92.92
68994;BME280;56054;50.968;5.816;2023-02-01T14:13:38;101198.19;;;7.81;92.88
68994;BME280;56054;50.968;5.816;2023-02-01T14:20:43;101195.41;;;7.90;92.49
68994;BME280;56054;50.968;5.816;2023-02-01T14:34:53;101203.16;;;8.00;92.19
68994;BME280;56054;50.968;5.816;2023-02-01T14:38:01;101192.25;;;8.04;91.10
68994;BME280;56054;50.968;5.816;2023-02-01T14:41:26;101201.72;;;8.04;91.85
68994;BME280;56054;50.968;5.816;2023-02-01T14:44:37;101199.50;;;8.08;91.08
68994;BME280;56054;50.968;5.816;2023-02-01T14:51:42;101221.47;;;8.13;90.55
68994;BME280;56054;50.968;5.816;2023-02-01T14:55:04;101217.34;;;8.15;90.12
68994;BME280;56054;50.968;5.816;2023-02-01T15:01:58;101230.28;;;8.15;90.89
68994;BME280;56054;50.968;5.816;2023-02-01T15:05:29;101223.16;;;8.13;92.60
68994;BME280;56054;50.968;5.816;2023-02-01T15:08:49;101226.69;;;8.03;94.20
68994;BME280;56054;50.968;5.816;2023-02-01T15:15:23;101219.75;;;7.92;98.13
68994;BME280;56054;50.968;5.816;2023-02-01T15:18:30;101228.28;;;7.91;98.06
68994;BME280;56054;50.968;5.816;2023-02-01T15:21:47;101223.13;;;7.91;97.75
68994;BME280;56054;50.968;5.816;2023-02-01T15:25:00;101225.84;;;7.92;97.46
68994;BME280;56054;50.968;5.816;2023-02-01T15:28:15;101235.81;;;7.88;98.13
68994;BME280;56054;50.968;5.816;2023-02-01T15:31:38;101236.06;;;7.91;96.24
68994;BME280;56054;50.968;5.816;2023-02-01T15:34:59;101251.72;;;7.92;98.34
68994;BME280;56054;50.968;5.816;2023-02-01T15:41:32;101239.78;;;7.94;97.92
68994;BME280;56054;50.968;5.816;2023-02-01T15:44:41;101246.78;;;7.96;98.01
68994;BME280;56054;50.968;5.816;2023-02-01T15:48:02;101240.84;;;7.86;99.47
68994;BME280;56054;50.968;5.816;2023-02-01T15:51:30;101236.84;;;7.80;100.00
68994;BME280;56054;50.968;5.816;2023-02-01T15:54:42;101245.00;;;7.84;100.00
68994;BME280;56054;50.968;5.816;2023-02-01T15:57:50;101250.81;;;7.82;99.46
68994;BME280;56054;50.968;5.816;2023-02-01T16:01:01;101254.69;;;7.87;99.32
68994;BME280;56054;50.968;5.816;2023-02-01T16:04:29;101258.81;;;7.85;100.00
68994;BME280;56054;50.968;5.816;2023-02-01T16:08:06;101250.44;;;7.77;100.00
68994;BME280;56054;50.968;5.816;2023-02-01T16:11:52;101253.94;;;7.67;100.00
68994;BME280;56054;50.968;5.816;2023-02-01T16:15:00;101255.50;;;7.65;100.00
68994;BME280;56054;50.968;5.816;2023-02-01T16:18:08;101273.34;;;7.62;100.00
68994;BME280;56054;50.968;5.816;2023-02-01T16:21:18;101276.19;;;7.55;100.00
68994;BME280;56054;50.968;5.816;2023-02-01T16:24:24;101273.09;;;7.59;100.00
68994;BME280;56054;50.968;5.816;2023-02-01T16:27:32;101277.38;;;7.59;100.00
68994;BME280;56054;50.968;5.816;2023-02-01T16:30:39;101272.47;;;7.52;100.00
68994;BME280;56054;50.968;5.816;2023-02-01T16:34:16;101269.59;;;7.48;100.00
68994;BME280;56054;50.968;5.816;2023-02-01T16:37:29;101276.59;;;7.49;100.00
68994;BME280;56054;50.968;5.816;2023-02-01T16:40:36;101279.59;;;7.44;100.00
68994;BME280;56054;50.968;5.816;2023-02-01T16:43:43;101288.50;;;7.37;100.00
68994;BME280;56054;50.968;5.816;2023-02-01T16:46:51;101285.66;;;7.34;100.00
68994;BME280;56054;50.968;5.816;2023-02-01T16:49:58;101295.63;;;7.29;100.00
68994;BME280;56054;50.968;5.816;2023-02-01T16:53:05;101303.38;;;7.29;100.00
68994;BME280;56054;50.968;5.816;2023-02-01T16:56:17;101296.13;;;7.25;100.00
68994;BME280;56054;50.968;5.816;2023-02-01T16:59:28;101301.28;;;7.25;100.00
68994;BME280;56054;50.968;5.816;2023-02-01T17:02:35;101302.31;;;7.27;100.00
68994;BME280;56054;50.968;5.816;2023-02-01T17:05:49;101302.44;;;7.29;100.00
68994;BME280;56054;50.968;5.816;2023-02-01T17:08:57;101295.06;;;7.34;100.00
68994;BME280;56054;50.968;5.816;2023-02-01T17:12:05;101305.03;;;7.29;100.00
68994;BME280;56054;50.968;5.816;2023-02-01T17:15:15;101299.25;;;7.32;100.00
68994;BME280;56054;50.968;5.816;2023-02-01T17:18:23;101312.78;;;7.29;100.00
68994;BME280;56054;50.968;5.816;2023-02-01T17:21:41;101311.63;;;7.25;100.00
68994;BME280;56054;50.968;5.816;2023-02-01T17:24:49;101310.59;;;7.23;100.00
68994;BME280;56054;50.968;5.816;2023-02-01T17:28:02;101314.06;;;7.24;100.00
68994;BME280;56054;50.968;5.816;2023-02-01T17:35:25;101301.53;;;7.28;100.00
68994;BME280;56054;50.968;5.816;2023-02-01T17:38:32;101303.63;;;7.33;100.00
68994;BME280;56054;50.968;5.816;2023-02-01T17:41:43;101306.72;;;7.28;100.00
68994;BME280;56054;50.968;5.816;2023-02-01T17:49:01;101308.00;;;7.34;100.00
68994;BME280;56054;50.968;5.816;2023-02-01T17:52:18;101310.22;;;7.39;100.00
68994;BME280;56054;50.968;5.816;2023-02-01T17:55:36;101316.03;;;7.37;100.00
68994;BME280;56054;50.968;5.816;2023-02-01T17:58:44;101335.28;;;7.40;100.00
68994;BME280;56054;50.968;5.816;2023-02-01T18:01:52;101334.13;;;7.47;100.00
68994;BME280;56054;50.968;5.816;2023-02-01T18:04:59;101334.78;;;7.44;100.00
68994;BME280;56054;50.968;5.816;2023-02-01T18:08:13;101337.13;;;7.41;100.00
68994;BME280;56054;50.968;5.816;2023-02-01T18:11:23;101341.25;;;7.39;100.00
68994;BME280;56054;50.968;5.816;2023-02-01T18:14:30;101331.56;;;7.37;100.00
68994;BME280;56054;50.968;5.816;2023-02-01T18:17:37;101338.28;;;7.45;100.00
68994;BME280;56054;50.968;5.816;2023-02-01T18:20:59;101339.72;;;7.41;100.00
68994;BME280;56054;50.968;5.816;2023-02-01T18:24:07;101340.84;;;7.45;100.00
68994;BME280;56054;50.968;5.816;2023-02-01T18:27:15;101344.22;;;7.44;100.00
68994;BME280;56054;50.968;5.816;2023-02-01T18:30:28;101345.78;;;7.42;100.00
68994;BME280;56054;50.968;5.816;2023-02-01T18:33:36;101347.31;;;7.40;100.00
68994;BME280;56054;50.968;5.816;2023-02-01T19:42:04;101331.41;;;7.45;100.00
68994;BME280;56054;50.968;5.816;2023-02-01T19:45:19;101332.44;;;7.47;100.00
68994;BME280;56054;50.968;5.816;2023-02-01T19:48:28;101336.84;;;7.48;100.00
68994;BME280;56054;50.968;5.816;2023-02-01T19:52:01;101326.00;;;7.53;100.00
68994;BME280;56054;50.968;5.816;2023-02-01T19:55:13;101324.06;;;7.50;100.00
68994;BME280;56054;50.968;5.816;2023-02-01T19:58:23;101313.72;;;7.50;100.00
68994;BME280;56054;50.968;5.816;2023-02-01T20:01:31;101321.47;;;7.50;100.00
68994;BME280;56054;50.968;5.816;2023-02-01T20:04:39;101333.63;;;7.51;100.00
68994;BME280;56054;50.968;5.816;2023-02-01T20:07:46;101324.06;;;7.50;100.00
68994;BME280;56054;50.968;5.816;2023-02-01T20:10:53;101335.69;;;7.45;100.00
68994;BME280;56054;50.968;5.816;2023-02-01T20:14:00;101334.13;;;7.37;100.00
68994;BME280;56054;50.968;5.816;2023-02-01T20:17:14;101342.09;;;7.19;100.00
68994;BME280;56054;50.968;5.816;2023-02-01T20:20:21;101339.00;;;7.13;100.00
68994;BME280;56054;50.968;5.816;2023-02-01T20:31:24;101332.16;;;7.14;100.00
68994;BME280;56054;50.968;5.816;2023-02-01T20:34:33;101326.97;;;7.14;100.00
68994;BME280;56054;50.968;5.816;2023-02-01T20:37:41;101337.84;;;7.10;100.00
68994;BME280;56054;50.968;5.816;2023-02-01T20:40:49;101337.97;;;7.11;100.00
68994;BME280;56054;50.968;5.816;2023-02-01T20:43:56;101334.34;;;7.09;100.00
68994;BME280;56054;50.968;5.816;2023-02-01T20:47:03;101346.50;;;7.10;100.00
68994;BME280;56054;50.968;5.816;2023-02-01T20:50:14;101341.69;;;7.04;100.00
68994;BME280;56054;50.968;5.816;2023-02-01T21:43:42;101368.00;;;7.29;100.00
68994;BME280;56054;50.968;5.816;2023-02-01T21:46:56;101369.56;;;7.38;100.00
68994;BME280;56054;50.968;5.816;2023-02-01T21:50:29;101377.03;;;7.35;100.00
68994;BME280;56054;50.968;5.816;2023-02-01T21:53:36;101368.09;;;7.31;100.00
68994;BME280;56054;50.968;5.816;2023-02-01T21:56:45;101364.13;;;7.24;100.00
68994;BME280;56054;50.968;5.816;2023-02-01T21:59:53;101368.09;;;7.21;100.00
68994;BME280;56054;50.968;5.816;2023-02-01T22:03:05;101369.63;;;7.19;100.00
68994;BME280;56054;50.968;5.816;2023-02-01T22:14:32;101379.06;;;7.18;100.00
68994;BME280;56054;50.968;5.816;2023-02-01T23:00:47;101413.47;;;7.27;100.00
68994;BME280;56054;50.968;5.816;2023-02-01T23:04:04;101408.06;;;7.24;100.00
68994;BME280;56054;50.968;5.816;2023-02-01T23:07:12;101417.75;;;7.27;100.00
68994;BME280;56054;50.968;5.816;2023-02-01T23:10:19;101409.72;;;7.24;100.00
68994;BME280;56054;50.968;5.816;2023-02-01T23:13:26;101408.81;;;7.23;100.00
68994;BME280;56054;50.968;5.816;2023-02-01T23:16:33;101398.47;;;7.23;100.00
68994;BME280;56054;50.968;5.816;2023-02-01T23:19:41;101407.75;;;7.21;100.00
